<h2>WHATSAPP GROUP</h2><p>Click Join in VIRTUAL BOARD</p> <h2>HKJK -- Nairobi</h2><p>newest destination to fly virtually</p> <h2>EGCC -- Manchester </h2><p>newest destination to fly virtually</p> <h2>Guangzhou - ZGGG</h2><p>newest destination to fly virtually</p>

Oman Air Virtual

About Us. About Our VA

Book Virtual Flights

Fly from Muscat to the World Virtually!

OMV News & Updates

OMV Newest Pilot

OMV Statistics

Total Fights Loged Today: 0
Total Visits Past Hour: 2
Total Pilots Registered: 118
Total Flights Flown: 2662
Total Aircrafts Active: 48
Total Flight Schedules: 244
Total Miles Flown: 2945026
Total Hours Clocked: 7404.01
Virtual Airline Rank: 119

Flight Tracking

LIVE Flight Tracking and Route

Destinations

View Our Wide Virtual Network

Flight # No. Origin Destination Fleet / PIC
OMA915 OOMS OOSA 737-81M

PIC: Salim Alriyami
OMA913 OOMS OOSA B737-81M

PIC: Fahad A.salaam
OMA644 OKBK OOMS 737-81M

PIC: AHMAD AL HAEL
OMA818 VTBS OOMS B787-8

PIC: Khalid Ali
OMA643 OOMS OKBK 737-81M

PIC: AHMAD AL HAEL
Flight # No. Origin Destination Fleet
OMA203

View Report
OOMS VABB 737-91M
OMA932

View Report
OOKB OOMS B737-81M
OMA931

View Report
OOMS OOKB B737-81M
OMA375

View Report
OOMS VCBI B737-81M
OMA844

View Report
RPLL OOMS A332-343

Source: IVAO Metar and TAF Information.

Muscat International Airport (ICAO: OOMS)
METAR: OOMS 240250Z 23003KT 170V300 9999 SCT030 BKN100 25/15 Q1014 NOSIG
TAF:

Salalah International Airport (ICAO: OOSA)
METAR: OOSA 240250Z 36003KT 9999 BKN025 23/19 Q1016 NOSIG
TAF:

Oman Air Virtual is no way affiliated to the real Oman Air. How ever the brand logo, colors belongs to Oman Air and we use only for the Simulation Purpose for the virtual aviation enthousiast around the globe.

If you are looking for Oman Air website, we kindly request you to visit www.omanair.com

ATC Online IVAO
Pilots Online IVAO
Member Online